sensor_id;sensor_type;location;lat;lon;timestamp;temperature;humidity
2851;DHT22;1433;49.976;8.342;2023-02-12T00:01:53;6.20;99.90
2851;DHT22;1433;49.976;8.342;2023-02-12T00:04:22;6.20;99.90
2851;DHT22;1433;49.976;8.342;2023-02-12T00:06:48;6.20;99.90
2851;DHT22;1433;49.976;8.342;2023-02-12T00:09:14;6.20;99.90
2851;DHT22;1433;49.976;8.342;2023-02-12T00:11:40;6.30;99.90
2851;DHT22;1433;49.976;8.342;2023-02-12T00:14:07;6.30;99.90
2851;DHT22;1433;49.976;8.342;2023-02-12T00:16:33;6.30;99.90
2851;DHT22;1433;49.976;8.342;2023-02-12T00:18:59;6.30;99.90
2851;DHT22;1433;49.976;8.342;2023-02-12T00:21:27;6.30;99.90
2851;DHT22;1433;49.976;8.342;2023-02-12T00:23:54;6.20;99.90
2851;DHT22;1433;49.976;8.342;2023-02-12T00:26:21;6.10;99.90
2851;DHT22;1433;49.976;8.342;2023-02-12T00:28:48;6.00;99.90
2851;DHT22;1433;49.976;8.342;2023-02-12T00:31:18;6.00;99.90
2851;DHT22;1433;49.976;8.342;2023-02-12T00:33:47;6.00;99.90
2851;DHT22;1433;49.976;8.342;2023-02-12T00:36:16;6.00;99.90
2851;DHT22;1433;49.976;8.342;2023-02-12T00:38:45;6.10;99.90
2851;DHT22;1433;49.976;8.342;2023-02-12T00:41:12;6.10;99.90
2851;DHT22;1433;49.976;8.342;2023-02-12T00:43:39;6.10;99.90
2851;DHT22;1433;49.976;8.342;2023-02-12T00:46:06;6.20;99.90
2851;DHT22;1433;49.976;8.342;2023-02-12T00:48:33;6.30;99.90
2851;DHT22;1433;49.976;8.342;2023-02-12T00:51:00;6.30;99.90
2851;DHT22;1433;49.976;8.342;2023-02-12T00:53:28;6.40;99.90
2851;DHT22;1433;49.976;8.342;2023-02-12T00:55:55;6.40;99.90
2851;DHT22;1433;49.976;8.342;2023-02-12T00:58:21;6.40;99.90
2851;DHT22;1433;49.976;8.342;2023-02-12T01:00:49;6.40;99.90
2851;DHT22;1433;49.976;8.342;2023-02-12T01:03:16;6.40;99.90
2851;DHT22;1433;49.976;8.342;2023-02-12T01:05:42;6.50;99.90
2851;DHT22;1433;49.976;8.342;2023-02-12T01:08:13;6.50;99.90
2851;DHT22;1433;49.976;8.342;2023-02-12T01:10:41;6.50;99.90
2851;DHT22;1433;49.976;8.342;2023-02-12T01:13:13;6.50;99.90
2851;DHT22;1433;49.976;8.342;2023-02-12T01:15:41;6.50;99.90
2851;DHT22;1433;49.976;8.342;2023-02-12T01:18:07;6.50;99.90
2851;DHT22;1433;49.976;8.342;2023-02-12T01:20:34;6.40;99.90
2851;DHT22;1433;49.976;8.342;2023-02-12T01:23:00;6.40;99.90
2851;DHT22;1433;49.976;8.342;2023-02-12T01:25:27;6.30;99.90
2851;DHT22;1433;49.976;8.342;2023-02-12T01:27:54;6.40;99.90
2851;DHT22;1433;49.976;8.342;2023-02-12T01:30:21;6.40;99.90
2851;DHT22;1433;49.976;8.342;2023-02-12T01:32:50;6.40;99.90
2851;DHT22;1433;49.976;8.342;2023-02-12T01:35:16;6.40;99.90
2851;DHT22;1433;49.976;8.342;2023-02-12T01:37:43;6.30;99.90
2851;DHT22;1433;49.976;8.342;2023-02-12T01:40:11;6.30;99.90
2851;DHT22;1433;49.976;8.342;2023-02-12T01:42:40;6.30;99.90
2851;DHT22;1433;49.976;8.342;2023-02-12T01:48:04;6.30;99.90
2851;DHT22;1433;49.976;8.342;2023-02-12T01:50:31;6.40;99.90
2851;DHT22;1433;49.976;8.342;2023-02-12T01:52:58;6.40;99.90
2851;DHT22;1433;49.976;8.342;2023-02-12T01:55:24;6.40;99.90
2851;DHT22;1433;49.976;8.342;2023-02-12T01:57:51;6.50;99.90
2851;DHT22;1433;49.976;8.342;2023-02-12T02:00:20;6.50;99.90
2851;DHT22;1433;49.976;8.342;2023-02-12T02:02:51;6.50;99.90
2851;DHT22;1433;49.976;8.342;2023-02-12T02:08:09;6.50;99.90
2851;DHT22;1433;49.976;8.342;2023-02-12T02:10:35;6.50;99.90
2851;DHT22;1433;49.976;8.342;2023-02-12T02:13:01;6.50;99.90
2851;DHT22;1433;49.976;8.342;2023-02-12T02:15:48;6.50;99.90
2851;DHT22;1433;49.976;8.342;2023-02-12T02:23:58;6.60;99.90
2851;DHT22;1433;49.976;8.342;2023-02-12T02:30:03;6.50;99.90
2851;DHT22;1433;49.976;8.342;2023-02-12T02:32:28;6.40;99.90
2851;DHT22;1433;49.976;8.342;2023-02-12T02:35:07;6.40;99.90
2851;DHT22;1433;49.976;8.342;2023-02-12T02:37:46;6.50;99.90
2851;DHT22;1433;49.976;8.342;2023-02-12T02:40:23;6.50;99.90
2851;DHT22;1433;49.976;8.342;2023-02-12T02:43:49;6.60;99.90
2851;DHT22;1433;49.976;8.342;2023-02-12T02:45:50;6.60;99.90
2851;DHT22;1433;49.976;8.342;2023-02-12T02:48:30;6.60;99.90
2851;DHT22;1433;49.976;8.342;2023-02-12T02:50:55;6.60;99.90
2851;DHT22;1433;49.976;8.342;2023-02-12T02:53:29;6.60;99.90
2851;DHT22;1433;49.976;8.342;2023-02-12T02:56:01;6.70;99.90
2851;DHT22;1433;49.976;8.342;2023-02-12T02:58:34;6.70;99.90
2851;DHT22;1433;49.976;8.342;2023-02-12T03:01:10;6.70;99.90
2851;DHT22;1433;49.976;8.342;2023-02-12T03:03:50;6.70;99.90
2851;DHT22;1433;49.976;8.342;2023-02-12T03:06:48;6.70;99.90
2851;DHT22;1433;49.976;8.342;2023-02-12T03:09:00;6.70;99.90
2851;DHT22;1433;49.976;8.342;2023-02-12T03:11:32;6.60;99.90
2851;DHT22;1433;49.976;8.342;2023-02-12T03:14:20;6.60;99.90
2851;DHT22;1433;49.976;8.342;2023-02-12T03:16:57;6.60;99.90
2851;DHT22;1433;49.976;8.342;2023-02-12T03:19:34;6.60;99.90
2851;DHT22;1433;49.976;8.342;2023-02-12T03:22:13;6.70;99.90
2851;DHT22;1433;49.976;8.342;2023-02-12T03:24:47;6.70;99.90
2851;DHT22;1433;49.976;8.342;2023-02-12T03:27:33;6.60;99.90
2851;DHT22;1433;49.976;8.342;2023-02-12T03:29:59;6.60;99.90
2851;DHT22;1433;49.976;8.342;2023-02-12T03:35:34;6.70;99.90
2851;DHT22;1433;49.976;8.342;2023-02-12T03:38:34;6.80;99.90
2851;DHT22;1433;49.976;8.342;2023-02-12T03:41:09;6.80;99.90
2851;DHT22;1433;49.976;8.342;2023-02-12T03:43:50;6.80;99.90
2851;DHT22;1433;49.976;8.342;2023-02-12T03:49:10;6.70;99.90
2851;DHT22;1433;49.976;8.342;2023-02-12T03:51:41;6.50;99.90
2851;DHT22;1433;49.976;8.342;2023-02-12T03:54:12;6.60;99.90
2851;DHT22;1433;49.976;8.342;2023-02-12T03:56:50;6.60;99.90
2851;DHT22;1433;49.976;8.342;2023-02-12T03:59:18;6.60;99.90
2851;DHT22;1433;49.976;8.342;2023-02-12T04:01:46;6.60;99.90
2851;DHT22;1433;49.976;8.342;2023-02-12T04:04:14;6.70;99.90
2851;DHT22;1433;49.976;8.342;2023-02-12T04:06:41;6.70;99.90
2851;DHT22;1433;49.976;8.342;2023-02-12T04:09:09;6.70;99.90
2851;DHT22;1433;49.976;8.342;2023-02-12T04:12:01;6.80;99.90
2851;DHT22;1433;49.976;8.342;2023-02-12T04:14:48;6.70;99.90
2851;DHT22;1433;49.976;8.342;2023-02-12T04:20:31;6.80;99.90
2851;DHT22;1433;49.976;8.342;2023-02-12T04:34:17;6.60;99.90
2851;DHT22;1433;49.976;8.342;2023-02-12T04:39:29;6.50;99.90
2851;DHT22;1433;49.976;8.342;2023-02-12T04:42:03;6.50;99.90
2851;DHT22;1433;49.976;8.342;2023-02-12T04:44:29;6.50;99.90
2851;DHT22;1433;49.976;8.342;2023-02-12T04:46:57;6.50;99.90
2851;DHT22;1433;49.976;8.342;2023-02-12T04:49:24;6.50;99.90
2851;DHT22;1433;49.976;8.342;2023-02-12T04:51:51;6.50;99.90
2851;DHT22;1433;49.976;8.342;2023-02-12T04:54:19;6.60;99.90
2851;DHT22;1433;49.976;8.342;2023-02-12T04:56:47;6.60;99.90
2851;DHT22;1433;49.976;8.342;2023-02-12T04:59:14;6.60;99.90
2851;DHT22;1433;49.976;8.342;2023-02-12T05:01:49;6.60;99.90
2851;DHT22;1433;49.976;8.342;2023-02-12T05:04:15;6.60;99.90
2851;DHT22;1433;49.976;8.342;2023-02-12T05:06:44;6.60;99.90
2851;DHT22;1433;49.976;8.342;2023-02-12T05:09:16;6.60;99.90
2851;DHT22;1433;49.976;8.342;2023-02-12T05:11:45;6.60;99.90
2851;DHT22;1433;49.976;8.342;2023-02-12T05:14:11;6.60;99.90
2851;DHT22;1433;49.976;8.342;2023-02-12T05:16:38;6.60;99.90
2851;DHT22;1433;49.976;8.342;2023-02-12T05:19:04;6.60;99.90
2851;DHT22;1433;49.976;8.342;2023-02-12T05:21:30;6.60;99.90
2851;DHT22;1433;49.976;8.342;2023-02-12T05:23:56;6.60;99.90
2851;DHT22;1433;49.976;8.342;2023-02-12T05:26:23;6.50;99.90
2851;DHT22;1433;49.976;8.342;2023-02-12T05:28:49;6.50;99.90
2851;DHT22;1433;49.976;8.342;2023-02-12T05:31:18;6.60;99.90
2851;DHT22;1433;49.976;8.342;2023-02-12T05:33:46;6.60;99.90
2851;DHT22;1433;49.976;8.342;2023-02-12T05:36:15;6.60;99.90
2851;DHT22;1433;49.976;8.342;2023-02-12T05:38:43;6.70;99.90
2851;DHT22;1433;49.976;8.342;2023-02-12T05:41:15;6.70;99.90
2851;DHT22;1433;49.976;8.342;2023-02-12T05:43:44;6.70;99.90
2851;DHT22;1433;49.976;8.342;2023-02-12T05:46:11;6.60;99.90
2851;DHT22;1433;49.976;8.342;2023-02-12T05:48:38;6.60;99.90
2851;DHT22;1433;49.976;8.342;2023-02-12T05:51:08;6.60;99.90
2851;DHT22;1433;49.976;8.342;2023-02-12T05:53:36;6.60;99.90
2851;DHT22;1433;49.976;8.342;2023-02-12T05:58:44;6.60;99.90
2851;DHT22;1433;49.976;8.342;2023-02-12T06:01:15;6.60;99.90
2851;DHT22;1433;49.976;8.342;2023-02-12T06:03:44;6.60;99.90
2851;DHT22;1433;49.976;8.342;2023-02-12T06:06:11;6.60;99.90
2851;DHT22;1433;49.976;8.342;2023-02-12T06:08:38;6.40;99.90
2851;DHT22;1433;49.976;8.342;2023-02-12T06:11:07;6.30;99.90
2851;DHT22;1433;49.976;8.342;2023-02-12T06:13:35;6.10;99.90
2851;DHT22;1433;49.976;8.342;2023-02-12T06:16:01;6.00;99.90
2851;DHT22;1433;49.976;8.342;2023-02-12T06:18:28;6.00;99.90
2851;DHT22;1433;49.976;8.342;2023-02-12T06:20:55;5.90;99.90
2851;DHT22;1433;49.976;8.342;2023-02-12T06:23:22;5.70;99.90
2851;DHT22;1433;49.976;8.342;2023-02-12T06:25:50;5.50;99.90
2851;DHT22;1433;49.976;8.342;2023-02-12T06:28:18;5.50;99.90
2851;DHT22;1433;49.976;8.342;2023-02-12T06:30:44;5.40;99.90
2851;DHT22;1433;49.976;8.342;2023-02-12T06:33:11;5.50;99.90
2851;DHT22;1433;49.976;8.342;2023-02-12T06:35:37;5.60;99.90
2851;DHT22;1433;49.976;8.342;2023-02-12T06:38:04;5.80;99.90
2851;DHT22;1433;49.976;8.342;2023-02-12T06:40:31;5.80;99.90
2851;DHT22;1433;49.976;8.342;2023-02-12T06:42:58;5.80;99.90
2851;DHT22;1433;49.976;8.342;2023-02-12T06:45:24;5.90;99.90
2851;DHT22;1433;49.976;8.342;2023-02-12T06:47:51;5.90;99.90
2851;DHT22;1433;49.976;8.342;2023-02-12T06:50:17;6.00;99.90
2851;DHT22;1433;49.976;8.342;2023-02-12T06:52:44;6.10;99.90
2851;DHT22;1433;49.976;8.342;2023-02-12T06:55:10;6.20;99.90
2851;DHT22;1433;49.976;8.342;2023-02-12T06:57:36;6.20;99.90
2851;DHT22;1433;49.976;8.342;2023-02-12T07:00:03;6.30;99.90
2851;DHT22;1433;49.976;8.342;2023-02-12T07:02:30;6.40;99.90
2851;DHT22;1433;49.976;8.342;2023-02-12T07:04:56;6.40;99.90
2851;DHT22;1433;49.976;8.342;2023-02-12T07:07:22;6.50;99.90
2851;DHT22;1433;49.976;8.342;2023-02-12T07:09:49;6.50;99.90
2851;DHT22;1433;49.976;8.342;2023-02-12T07:12:15;6.60;99.90
2851;DHT22;1433;49.976;8.342;2023-02-12T07:14:41;6.60;99.90
2851;DHT22;1433;49.976;8.342;2023-02-12T07:17:08;6.50;99.90
2851;DHT22;1433;49.976;8.342;2023-02-12T07:19:35;6.60;99.90
2851;DHT22;1433;49.976;8.342;2023-02-12T07:22:02;6.60;99.90
2851;DHT22;1433;49.976;8.342;2023-02-12T07:24:28;6.60;99.90
2851;DHT22;1433;49.976;8.342;2023-02-12T07:26:55;6.60;99.90
2851;DHT22;1433;49.976;8.342;2023-02-12T07:29:21;6.50;99.90
2851;DHT22;1433;49.976;8.342;2023-02-12T07:31:47;6.40;99.90
2851;DHT22;1433;49.976;8.342;2023-02-12T07:34:13;6.20;99.90
2851;DHT22;1433;49.976;8.342;2023-02-12T07:36:40;6.20;99.90
2851;DHT22;1433;49.976;8.342;2023-02-12T07:39:07;6.40;99.90
2851;DHT22;1433;49.976;8.342;2023-02-12T07:41:34;6.50;99.90
2851;DHT22;1433;49.976;8.342;2023-02-12T07:44:03;6.50;99.90
2851;DHT22;1433;49.976;8.342;2023-02-12T07:46:42;6.60;99.90
2851;DHT22;1433;49.976;8.342;2023-02-12T07:49:07;6.50;99.90
2851;DHT22;1433;49.976;8.342;2023-02-12T07:51:39;6.40;99.90
2851;DHT22;1433;49.976;8.342;2023-02-12T07:54:06;6.60;99.90
2851;DHT22;1433;49.976;8.342;2023-02-12T07:56:34;6.70;99.90
2851;DHT22;1433;49.976;8.342;2023-02-12T07:59:04;6.90;99.90
2851;DHT22;1433;49.976;8.342;2023-02-12T08:01:35;7.10;99.90
2851;DHT22;1433;49.976;8.342;2023-02-12T08:04:10;7.20;99.90
2851;DHT22;1433;49.976;8.342;2023-02-12T08:06:43;7.40;99.90
2851;DHT22;1433;49.976;8.342;2023-02-12T08:09:14;7.50;99.90
2851;DHT22;1433;49.976;8.342;2023-02-12T08:11:43;7.60;99.90
2851;DHT22;1433;49.976;8.342;2023-02-12T08:14:11;7.60;99.90
2851;DHT22;1433;49.976;8.342;2023-02-12T08:16:40;7.70;99.90
2851;DHT22;1433;49.976;8.342;2023-02-12T08:19:08;7.80;99.90
2851;DHT22;1433;49.976;8.342;2023-02-12T08:21:34;7.90;99.90
2851;DHT22;1433;49.976;8.342;2023-02-12T08:24:01;8.00;99.90
2851;DHT22;1433;49.976;8.342;2023-02-12T08:26:33;8.10;99.90
2851;DHT22;1433;49.976;8.342;2023-02-12T08:29:05;8.20;99.90
2851;DHT22;1433;49.976;8.342;2023-02-12T08:31:40;8.30;99.90
2851;DHT22;1433;49.976;8.342;2023-02-12T08:34:05;8.40;99.90
2851;DHT22;1433;49.976;8.342;2023-02-12T08:36:37;8.50;99.90
2851;DHT22;1433;49.976;8.342;2023-02-12T08:39:06;8.60;99.90
2851;DHT22;1433;49.976;8.342;2023-02-12T08:41:33;8.70;99.90
2851;DHT22;1433;49.976;8.342;2023-02-12T08:44:01;8.70;99.90
2851;DHT22;1433;49.976;8.342;2023-02-12T08:46:32;8.60;99.90
2851;DHT22;1433;49.976;8.342;2023-02-12T08:49:12;8.70;99.90
2851;DHT22;1433;49.976;8.342;2023-02-12T08:51:39;8.80;99.90
2851;DHT22;1433;49.976;8.342;2023-02-12T08:54:12;9.00;99.90
2851;DHT22;1433;49.976;8.342;2023-02-12T08:56:40;9.10;99.90
2851;DHT22;1433;49.976;8.342;2023-02-12T08:59:07;9.10;99.90
2851;DHT22;1433;49.976;8.342;2023-02-12T09:01:36;9.10;99.90
2851;DHT22;1433;49.976;8.342;2023-02-12T09:04:05;9.30;99.90
2851;DHT22;1433;49.976;8.342;2023-02-12T09:06:33;9.50;99.90
2851;DHT22;1433;49.976;8.342;2023-02-12T09:09:01;9.60;99.90
2851;DHT22;1433;49.976;8.342;2023-02-12T09:11:28;9.60;99.90
2851;DHT22;1433;49.976;8.342;2023-02-12T09:13:59;9.50;99.90
2851;DHT22;1433;49.976;8.342;2023-02-12T09:16:29;9.60;99.90
2851;DHT22;1433;49.976;8.342;2023-02-12T09:18:57;9.70;99.90
2851;DHT22;1433;49.976;8.342;2023-02-12T09:21:23;9.80;99.90
2851;DHT22;1433;49.976;8.342;2023-02-12T09:23:50;9.80;99.90
2851;DHT22;1433;49.976;8.342;2023-02-12T09:26:19;9.90;99.90
2851;DHT22;1433;49.976;8.342;2023-02-12T09:28:48;10.00;99.90
2851;DHT22;1433;49.976;8.342;2023-02-12T09:31:18;10.10;99.90
2851;DHT22;1433;49.976;8.342;2023-02-12T09:33:48;10.20;99.90
2851;DHT22;1433;49.976;8.342;2023-02-12T09:36:15;10.30;99.90
2851;DHT22;1433;49.976;8.342;2023-02-12T09:38:42;10.30;99.90
2851;DHT22;1433;49.976;8.342;2023-02-12T09:41:35;10.40;99.90
2851;DHT22;1433;49.976;8.342;2023-02-12T09:52:23;10.80;99.90
2851;DHT22;1433;49.976;8.342;2023-02-12T09:54:51;10.80;99.90
2851;DHT22;1433;49.976;8.342;2023-02-12T09:59:57;10.70;99.90
2851;DHT22;1433;49.976;8.342;2023-02-12T10:02:24;10.70;99.90
2851;DHT22;1433;49.976;8.342;2023-02-12T10:04:51;10.70;99.90
2851;DHT22;1433;49.976;8.342;2023-02-12T10:10:47;10.70;99.90
2851;DHT22;1433;49.976;8.342;2023-02-12T10:16:22;10.60;99.90
2851;DHT22;1433;49.976;8.342;2023-02-12T10:22:33;10.80;99.90
2851;DHT22;1433;49.976;8.342;2023-02-12T10:27:59;10.80;99.90
2851;DHT22;1433;49.976;8.342;2023-02-12T10:30:55;10.80;99.90
2851;DHT22;1433;49.976;8.342;2023-02-12T10:33:34;10.90;99.90
2851;DHT22;1433;49.976;8.342;2023-02-12T10:36:15;10.90;99.90
2851;DHT22;1433;49.976;8.342;2023-02-12T10:39:01;10.90;99.90
2851;DHT22;1433;49.976;8.342;2023-02-12T10:41:45;11.00;99.90
2851;DHT22;1433;49.976;8.342;2023-02-12T10:44:16;11.00;99.90
2851;DHT22;1433;49.976;8.342;2023-02-12T10:46:42;10.90;99.90
2851;DHT22;1433;49.976;8.342;2023-02-12T10:49:12;10.90;99.90
2851;DHT22;1433;49.976;8.342;2023-02-12T10:54:46;11.00;99.90
2851;DHT22;1433;49.976;8.342;2023-02-12T10:57:22;11.10;99.90
2851;DHT22;1433;49.976;8.342;2023-02-12T10:59:52;11.30;99.90
2851;DHT22;1433;49.976;8.342;2023-02-12T11:02:25;11.40;99.90
2851;DHT22;1433;49.976;8.342;2023-02-12T11:04:54;11.40;99.90
2851;DHT22;1433;49.976;8.342;2023-02-12T11:07:24;11.30;99.90
2851;DHT22;1433;49.976;8.342;2023-02-12T11:09:53;11.30;99.90
2851;DHT22;1433;49.976;8.342;2023-02-12T11:12:35;11.40;99.90
2851;DHT22;1433;49.976;8.342;2023-02-12T11:18:03;11.60;99.90
2851;DHT22;1433;49.976;8.342;2023-02-12T11:20:41;11.60;99.90
2851;DHT22;1433;49.976;8.342;2023-02-12T11:23:41;11.60;99.90
2851;DHT22;1433;49.976;8.342;2023-02-12T11:31:33;11.90;99.90
2851;DHT22;1433;49.976;8.342;2023-02-12T11:34:08;12.00;99.90
2851;DHT22;1433;49.976;8.342;2023-02-12T11:36:40;12.00;99.90
2851;DHT22;1433;49.976;8.342;2023-02-12T11:42:19;12.10;99.90
2851;DHT22;1433;49.976;8.342;2023-02-12T11:44:53;12.30;99.90
2851;DHT22;1433;49.976;8.342;2023-02-12T11:47:31;12.00;99.90
2851;DHT22;1433;49.976;8.342;2023-02-12T11:52:58;12.00;99.90
2851;DHT22;1433;49.976;8.342;2023-02-12T11:55:28;12.10;99.90
2851;DHT22;1433;49.976;8.342;2023-02-12T11:58:17;12.10;99.90
2851;DHT22;1433;49.976;8.342;2023-02-12T12:01:10;12.10;99.90
2851;DHT22;1433;49.976;8.342;2023-02-12T12:06:46;12.20;99.90
2851;DHT22;1433;49.976;8.342;2023-02-12T12:17:44;12.50;99.90
2851;DHT22;1433;49.976;8.342;2023-02-12T12:20:38;12.50;99.90
2851;DHT22;1433;49.976;8.342;2023-02-12T12:23:36;12.50;99.90
2851;DHT22;1433;49.976;8.342;2023-02-12T12:26:06;12.60;99.90
2851;DHT22;1433;49.976;8.342;2023-02-12T12:28:40;12.80;99.90
2851;DHT22;1433;49.976;8.342;2023-02-12T12:31:26;12.70;99.90
2851;DHT22;1433;49.976;8.342;2023-02-12T12:34:05;12.60;99.90
2851;DHT22;1433;49.976;8.342;2023-02-12T12:42:44;12.90;99.90
2851;DHT22;1433;49.976;8.342;2023-02-12T12:45:34;12.90;99.90
2851;DHT22;1433;49.976;8.342;2023-02-12T12:48:30;13.00;99.90
2851;DHT22;1433;49.976;8.342;2023-02-12T13:02:47;12.70;99.90
2851;DHT22;1433;49.976;8.342;2023-02-12T13:05:46;12.80;99.90
2851;DHT22;1433;49.976;8.342;2023-02-12T13:08:34;13.00;99.90
2851;DHT22;1433;49.976;8.342;2023-02-12T13:11:17;13.10;99.90
2851;DHT22;1433;49.976;8.342;2023-02-12T13:20:19;12.80;99.90
2851;DHT22;1433;49.976;8.342;2023-02-12T13:22:56;12.70;99.90
2851;DHT22;1433;49.976;8.342;2023-02-12T13:25:40;12.30;99.90
2851;DHT22;1433;49.976;8.342;2023-02-12T13:28:26;12.00;99.90
2851;DHT22;1433;49.976;8.342;2023-02-12T13:30:56;12.00;99.90
2851;DHT22;1433;49.976;8.342;2023-02-12T13:33:34;12.10;99.90
2851;DHT22;1433;49.976;8.342;2023-02-12T13:36:05;12.10;99.90
2851;DHT22;1433;49.976;8.342;2023-02-12T13:38:55;12.10;99.90
2851;DHT22;1433;49.976;8.342;2023-02-12T13:41:12;12.10;99.90
2851;DHT22;1433;49.976;8.342;2023-02-12T13:52:09;12.00;99.90
2851;DHT22;1433;49.976;8.342;2023-02-12T13:57:16;12.10;99.90
2851;DHT22;1433;49.976;8.342;2023-02-12T13:59:45;12.10;99.90
2851;DHT22;1433;49.976;8.342;2023-02-12T14:05:28;12.10;99.90
2851;DHT22;1433;49.976;8.342;2023-02-12T14:07:58;12.00;99.90
2851;DHT22;1433;49.976;8.342;2023-02-12T14:10:42;12.00;99.90
2851;DHT22;1433;49.976;8.342;2023-02-12T14:13:18;11.90;99.90
2851;DHT22;1433;49.976;8.342;2023-02-12T14:15:50;11.80;99.90
2851;DHT22;1433;49.976;8.342;2023-02-12T14:18:22;11.90;99.90
2851;DHT22;1433;49.976;8.342;2023-02-12T14:23:43;12.00;99.90
2851;DHT22;1433;49.976;8.342;2023-02-12T14:26:15;12.00;99.90
2851;DHT22;1433;49.976;8.342;2023-02-12T14:29:05;11.90;99.90
2851;DHT22;1433;49.976;8.342;2023-02-12T14:31:34;11.90;99.90
2851;DHT22;1433;49.976;8.342;2023-02-12T14:36:38;12.00;99.90
2851;DHT22;1433;49.976;8.342;2023-02-12T14:41:54;11.90;99.90
2851;DHT22;1433;49.976;8.342;2023-02-12T14:46:57;11.50;99.90
2851;DHT22;1433;49.976;8.342;2023-02-12T14:52:15;11.50;99.90
2851;DHT22;1433;49.976;8.342;2023-02-12T14:54:55;11.60;99.90
2851;DHT22;1433;49.976;8.342;2023-02-12T14:57:29;11.60;99.90
2851;DHT22;1433;49.976;8.342;2023-02-12T15:02:54;11.60;99.90
2851;DHT22;1433;49.976;8.342;2023-02-12T15:05:30;11.40;99.90
2851;DHT22;1433;49.976;8.342;2023-02-12T15:08:10;11.30;99.90
2851;DHT22;1433;49.976;8.342;2023-02-12T15:13:59;11.30;99.90
2851;DHT22;1433;49.976;8.342;2023-02-12T15:16:55;11.30;99.90
2851;DHT22;1433;49.976;8.342;2023-02-12T15:20:03;11.20;99.90
2851;DHT22;1433;49.976;8.342;2023-02-12T15:22:37;11.10;99.90
2851;DHT22;1433;49.976;8.342;2023-02-12T15:28:00;11.10;99.90
2851;DHT22;1433;49.976;8.342;2023-02-12T15:30:28;11.10;99.90
2851;DHT22;1433;49.976;8.342;2023-02-12T15:33:02;11.00;99.90
2851;DHT22;1433;49.976;8.342;2023-02-12T15:35:32;11.00;99.90
2851;DHT22;1433;49.976;8.342;2023-02-12T15:38:00;10.90;99.90
2851;DHT22;1433;49.976;8.342;2023-02-12T15:40:29;10.80;99.90
2851;DHT22;1433;49.976;8.342;2023-02-12T15:42:59;10.80;99.90
2851;DHT22;1433;49.976;8.342;2023-02-12T15:45:32;10.70;99.90
2851;DHT22;1433;49.976;8.342;2023-02-12T15:48:15;10.60;99.90
2851;DHT22;1433;49.976;8.342;2023-02-12T15:53:33;10.20;99.90
2851;DHT22;1433;49.976;8.342;2023-02-12T15:55:59;10.00;99.90
2851;DHT22;1433;49.976;8.342;2023-02-12T16:01:03;9.80;99.90
2851;DHT22;1433;49.976;8.342;2023-02-12T16:03:33;9.70;99.90
2851;DHT22;1433;49.976;8.342;2023-02-12T16:06:05;9.50;99.90
2851;DHT22;1433;49.976;8.342;2023-02-12T16:08:40;9.40;99.90
2851;DHT22;1433;49.976;8.342;2023-02-12T16:11:09;9.30;99.90
2851;DHT22;1433;49.976;8.342;2023-02-12T16:13:43;9.20;99.90
2851;DHT22;1433;49.976;8.342;2023-02-12T16:18:45;9.00;99.90
2851;DHT22;1433;49.976;8.342;2023-02-12T16:23:45;8.80;99.90
2851;DHT22;1433;49.976;8.342;2023-02-12T16:26:17;8.70;99.90
2851;DHT22;1433;49.976;8.342;2023-02-12T16:28:47;8.60;99.90
2851;DHT22;1433;49.976;8.342;2023-02-12T16:31:16;8.50;99.90
2851;DHT22;1433;49.976;8.342;2023-02-12T16:33:49;8.40;99.90
2851;DHT22;1433;49.976;8.342;2023-02-12T16:42:14;8.20;99.90
2851;DHT22;1433;49.976;8.342;2023-02-12T16:45:49;8.00;99.90
2851;DHT22;1433;49.976;8.342;2023-02-12T16:47:40;7.90;99.90
2851;DHT22;1433;49.976;8.342;2023-02-12T16:50:52;7.80;99.90
2851;DHT22;1433;49.976;8.342;2023-02-12T16:53:37;7.70;99.90
2851;DHT22;1433;49.976;8.342;2023-02-12T16:56:14;7.70;99.90
2851;DHT22;1433;49.976;8.342;2023-02-12T16:58:44;7.50;99.90
2851;DHT22;1433;49.976;8.342;2023-02-12T17:01:20;7.40;99.90
2851;DHT22;1433;49.976;8.342;2023-02-12T17:03:51;7.30;99.90
2851;DHT22;1433;49.976;8.342;2023-02-12T17:06:21;7.30;99.90
2851;DHT22;1433;49.976;8.342;2023-02-12T17:08:50;7.20;99.90
2851;DHT22;1433;49.976;8.342;2023-02-12T17:11:17;7.10;99.90
2851;DHT22;1433;49.976;8.342;2023-02-12T17:13:46;7.10;99.90
2851;DHT22;1433;49.976;8.342;2023-02-12T17:16:14;7.00;99.90
2851;DHT22;1433;49.976;8.342;2023-02-12T17:18:41;7.00;99.90
2851;DHT22;1433;49.976;8.342;2023-02-12T17:23:49;6.90;99.90
2851;DHT22;1433;49.976;8.342;2023-02-12T17:26:16;6.80;99.90
2851;DHT22;1433;49.976;8.342;2023-02-12T17:28:42;6.80;99.90
2851;DHT22;1433;49.976;8.342;2023-02-12T17:31:10;6.80;99.90
2851;DHT22;1433;49.976;8.342;2023-02-12T17:33:37;6.70;99.90
2851;DHT22;1433;49.976;8.342;2023-02-12T17:36:04;6.70;99.90
2851;DHT22;1433;49.976;8.342;2023-02-12T17:38:31;6.60;99.90
2851;DHT22;1433;49.976;8.342;2023-02-12T17:40:58;6.60;99.90
2851;DHT22;1433;49.976;8.342;2023-02-12T17:43:24;6.50;99.90
2851;DHT22;1433;49.976;8.342;2023-02-12T17:45:50;6.50;99.90
2851;DHT22;1433;49.976;8.342;2023-02-12T17:48:18;6.50;99.90
2851;DHT22;1433;49.976;8.342;2023-02-12T17:50:52;6.40;99.90
2851;DHT22;1433;49.976;8.342;2023-02-12T17:53:21;6.40;99.90
2851;DHT22;1433;49.976;8.342;2023-02-12T17:55:47;6.30;99.90
2851;DHT22;1433;49.976;8.342;2023-02-12T17:58:13;6.30;99.90
2851;DHT22;1433;49.976;8.342;2023-02-12T18:00:40;6.30;99.90
2851;DHT22;1433;49.976;8.342;2023-02-12T18:03:07;6.20;99.90
2851;DHT22;1433;49.976;8.342;2023-02-12T18:05:33;6.20;99.90
2851;DHT22;1433;49.976;8.342;2023-02-12T18:08:08;6.10;99.90
2851;DHT22;1433;49.976;8.342;2023-02-12T18:10:40;6.10;99.90
2851;DHT22;1433;49.976;8.342;2023-02-12T18:13:07;6.10;99.90
2851;DHT22;1433;49.976;8.342;2023-02-12T18:15:34;6.00;99.90
2851;DHT22;1433;49.976;8.342;2023-02-12T18:18:01;6.00;99.90
2851;DHT22;1433;49.976;8.342;2023-02-12T18:20:28;6.00;99.90
2851;DHT22;1433;49.976;8.342;2023-02-12T18:22:54;6.00;99.90
2851;DHT22;1433;49.976;8.342;2023-02-12T18:25:21;5.90;99.90
2851;DHT22;1433;49.976;8.342;2023-02-12T18:27:48;5.90;99.90
2851;DHT22;1433;49.976;8.342;2023-02-12T18:30:15;5.80;99.90
2851;DHT22;1433;49.976;8.342;2023-02-12T18:32:41;5.80;99.90
2851;DHT22;1433;49.976;8.342;2023-02-12T18:35:08;5.70;99.90
2851;DHT22;1433;49.976;8.342;2023-02-12T18:37:35;5.70;99.90
2851;DHT22;1433;49.976;8.342;2023-02-12T18:40:02;5.70;99.90
2851;DHT22;1433;49.976;8.342;2023-02-12T18:42:29;5.60;99.90
2851;DHT22;1433;49.976;8.342;2023-02-12T18:44:58;5.70;99.90
2851;DHT22;1433;49.976;8.342;2023-02-12T18:47:24;5.70;99.90
2851;DHT22;1433;49.976;8.342;2023-02-12T18:49:50;5.60;99.90
2851;DHT22;1433;49.976;8.342;2023-02-12T18:52:17;5.50;99.90
2851;DHT22;1433;49.976;8.342;2023-02-12T18:54:43;5.50;99.90
2851;DHT22;1433;49.976;8.342;2023-02-12T18:57:09;5.40;99.90
2851;DHT22;1433;49.976;8.342;2023-02-12T18:59:36;5.40;99.90
2851;DHT22;1433;49.976;8.342;2023-02-12T19:02:03;5.40;99.90
2851;DHT22;1433;49.976;8.342;2023-02-12T19:04:30;5.40;99.90
2851;DHT22;1433;49.976;8.342;2023-02-12T19:06:57;5.40;99.90
2851;DHT22;1433;49.976;8.342;2023-02-12T19:09:24;5.40;99.90
2851;DHT22;1433;49.976;8.342;2023-02-12T19:11:53;5.30;99.90
2851;DHT22;1433;49.976;8.342;2023-02-12T19:14:22;5.30;99.90
2851;DHT22;1433;49.976;8.342;2023-02-12T19:16:50;5.20;99.90
2851;DHT22;1433;49.976;8.342;2023-02-12T19:19:17;5.20;99.90
2851;DHT22;1433;49.976;8.342;2023-02-12T19:21:45;5.30;99.90
2851;DHT22;1433;49.976;8.342;2023-02-12T19:24:13;5.30;99.90
2851;DHT22;1433;49.976;8.342;2023-02-12T19:26:41;5.30;99.90
2851;DHT22;1433;49.976;8.342;2023-02-12T19:29:11;5.40;99.90
2851;DHT22;1433;49.976;8.342;2023-02-12T19:31:42;5.50;99.90
2851;DHT22;1433;49.976;8.342;2023-02-12T19:34:16;5.60;99.90